sensor_id;sensor_type;location;lat;lon;timestamp;P1;durP1;ratioP1;P2;durP2;ratioP2
56736;SDS011;42618;51.226;4.910;2023-04-06T00:00:53;23.13;;;11.05;;
56736;SDS011;42618;51.226;4.910;2023-04-06T00:03:20;23.50;;;11.10;;
56736;SDS011;42618;51.226;4.910;2023-04-06T00:05:47;22.17;;;11.50;;
56736;SDS011;42618;51.226;4.910;2023-04-06T00:08:14;27.05;;;11.68;;
56736;SDS011;42618;51.226;4.910;2023-04-06T00:10:41;23.63;;;12.13;;
56736;SDS011;42618;51.226;4.910;2023-04-06T00:13:08;26.67;;;12.93;;
56736;SDS011;42618;51.226;4.910;2023-04-06T00:15:35;26.88;;;13.40;;
56736;SDS011;42618;51.226;4.910;2023-04-06T00:18:02;24.17;;;12.20;;
56736;SDS011;42618;51.226;4.910;2023-04-06T00:20:29;23.58;;;12.93;;
56736;SDS011;42618;51.226;4.910;2023-04-06T00:22:56;27.40;;;13.75;;
56736;SDS011;42618;51.226;4.910;2023-04-06T00:25:23;21.60;;;12.77;;
56736;SDS011;42618;51.226;4.910;2023-04-06T00:27:50;30.48;;;13.75;;
56736;SDS011;42618;51.226;4.910;2023-04-06T00:30:16;26.75;;;13.20;;
56736;SDS011;42618;51.226;4.910;2023-04-06T00:32:44;30.60;;;14.80;;
56736;SDS011;42618;51.226;4.910;2023-04-06T00:35:11;25.90;;;14.07;;
56736;SDS011;42618;51.226;4.910;2023-04-06T00:37:38;32.00;;;14.75;;
56736;SDS011;42618;51.226;4.910;2023-04-06T00:40:04;33.85;;;14.77;;
56736;SDS011;42618;51.226;4.910;2023-04-06T00:42:32;26.83;;;14.18;;
56736;SDS011;42618;51.226;4.910;2023-04-06T00:44:59;32.35;;;14.35;;
56736;SDS011;42618;51.226;4.910;2023-04-06T00:47:27;27.67;;;13.52;;
56736;SDS011;42618;51.226;4.910;2023-04-06T00:49:56;27.10;;;14.55;;
56736;SDS011;42618;51.226;4.910;2023-04-06T00:52:23;26.80;;;14.85;;
56736;SDS011;42618;51.226;4.910;2023-04-06T00:54:50;29.00;;;13.85;;
56736;SDS011;42618;51.226;4.910;2023-04-06T00:57:19;30.77;;;14.43;;
56736;SDS011;42618;51.226;4.910;2023-04-06T00:59:51;29.42;;;14.63;;
56736;SDS011;42618;51.226;4.910;2023-04-06T01:02:20;26.83;;;13.40;;
56736;SDS011;42618;51.226;4.910;2023-04-06T01:04:50;28.58;;;13.55;;
56736;SDS011;42618;51.226;4.910;2023-04-06T01:07:29;27.60;;;13.32;;
56736;SDS011;42618;51.226;4.910;2023-04-06T01:10:26;26.80;;;13.05;;
56736;SDS011;42618;51.226;4.910;2023-04-06T01:13:08;24.65;;;12.65;;
56736;SDS011;42618;51.226;4.910;2023-04-06T01:15:54;23.63;;;12.25;;
56736;SDS011;42618;51.226;4.910;2023-04-06T01:18:29;24.08;;;13.00;;
56736;SDS011;42618;51.226;4.910;2023-04-06T01:21:12;25.85;;;12.73;;
56736;SDS011;42618;51.226;4.910;2023-04-06T01:23:56;27.65;;;13.40;;
56736;SDS011;42618;51.226;4.910;2023-04-06T01:26:31;25.50;;;12.80;;
56736;SDS011;42618;51.226;4.910;2023-04-06T01:29:00;26.58;;;13.20;;
56736;SDS011;42618;51.226;4.910;2023-04-06T01:31:29;29.40;;;13.85;;
56736;SDS011;42618;51.226;4.910;2023-04-06T01:33:56;26.58;;;13.15;;
56736;SDS011;42618;51.226;4.910;2023-04-06T01:36:25;26.42;;;12.70;;
56736;SDS011;42618;51.226;4.910;2023-04-06T01:39:04;25.75;;;12.70;;
56736;SDS011;42618;51.226;4.910;2023-04-06T01:41:34;30.08;;;13.80;;
56736;SDS011;42618;51.226;4.910;2023-04-06T01:44:02;25.70;;;12.90;;
56736;SDS011;42618;51.226;4.910;2023-04-06T01:51:43;24.80;;;11.73;;
56736;SDS011;42618;51.226;4.910;2023-04-06T01:54:12;21.90;;;11.40;;
56736;SDS011;42618;51.226;4.910;2023-04-06T01:56:51;28.10;;;12.88;;
56736;SDS011;42618;51.226;4.910;2023-04-06T01:59:31;27.30;;;11.73;;
56736;SDS011;42618;51.226;4.910;2023-04-06T02:02:02;25.90;;;12.27;;
56736;SDS011;42618;51.226;4.910;2023-04-06T02:04:31;26.90;;;12.20;;
56736;SDS011;42618;51.226;4.910;2023-04-06T02:07:07;29.35;;;12.63;;
56736;SDS011;42618;51.226;4.910;2023-04-06T02:09:34;24.02;;;11.75;;
56736;SDS011;42618;51.226;4.910;2023-04-06T02:12:02;23.95;;;11.85;;
56736;SDS011;42618;51.226;4.910;2023-04-06T02:14:32;24.10;;;11.70;;
56736;SDS011;42618;51.226;4.910;2023-04-06T02:16:59;23.45;;;11.73;;
56736;SDS011;42618;51.226;4.910;2023-04-06T02:19:27;25.20;;;12.07;;
56736;SDS011;42618;51.226;4.910;2023-04-06T02:21:54;27.67;;;12.47;;
56736;SDS011;42618;51.226;4.910;2023-04-06T02:24:21;28.42;;;11.50;;
56736;SDS011;42618;51.226;4.910;2023-04-06T02:26:48;23.73;;;11.98;;
56736;SDS011;42618;51.226;4.910;2023-04-06T02:29:15;22.95;;;11.13;;
56736;SDS011;42618;51.226;4.910;2023-04-06T02:31:42;23.33;;;11.00;;
56736;SDS011;42618;51.226;4.910;2023-04-06T02:34:09;24.57;;;11.63;;
56736;SDS011;42618;51.226;4.910;2023-04-06T02:36:44;28.83;;;11.80;;
56736;SDS011;42618;51.226;4.910;2023-04-06T02:39:13;28.30;;;12.70;;
56736;SDS011;42618;51.226;4.910;2023-04-06T02:41:40;25.63;;;11.88;;
56736;SDS011;42618;51.226;4.910;2023-04-06T02:44:07;23.15;;;11.60;;
56736;SDS011;42618;51.226;4.910;2023-04-06T02:46:41;23.65;;;10.93;;
56736;SDS011;42618;51.226;4.910;2023-04-06T02:49:08;25.23;;;11.23;;
56736;SDS011;42618;51.226;4.910;2023-04-06T02:51:36;28.65;;;11.95;;
56736;SDS011;42618;51.226;4.910;2023-04-06T02:54:22;27.35;;;12.45;;
56736;SDS011;42618;51.226;4.910;2023-04-06T02:56:49;25.48;;;11.00;;
56736;SDS011;42618;51.226;4.910;2023-04-06T02:59:16;25.95;;;11.50;;
56736;SDS011;42618;51.226;4.910;2023-04-06T03:01:53;23.08;;;10.70;;
56736;SDS011;42618;51.226;4.910;2023-04-06T03:04:20;23.38;;;11.02;;
56736;SDS011;42618;51.226;4.910;2023-04-06T03:06:50;24.50;;;10.70;;
56736;SDS011;42618;51.226;4.910;2023-04-06T03:09:27;27.38;;;11.77;;
56736;SDS011;42618;51.226;4.910;2023-04-06T03:11:54;27.85;;;10.98;;
56736;SDS011;42618;51.226;4.910;2023-04-06T03:14:23;25.13;;;11.30;;
56736;SDS011;42618;51.226;4.910;2023-04-06T03:16:49;24.23;;;11.15;;
56736;SDS011;42618;51.226;4.910;2023-04-06T03:19:20;28.80;;;11.00;;
56736;SDS011;42618;51.226;4.910;2023-04-06T03:21:47;23.42;;;10.50;;
56736;SDS011;42618;51.226;4.910;2023-04-06T03:26:42;22.13;;;10.23;;
56736;SDS011;42618;51.226;4.910;2023-04-06T03:29:09;24.27;;;10.80;;
56736;SDS011;42618;51.226;4.910;2023-04-06T03:31:36;20.77;;;9.55;;
56736;SDS011;42618;51.226;4.910;2023-04-06T03:34:41;23.60;;;11.23;;
56736;SDS011;42618;51.226;4.910;2023-04-06T03:37:08;25.55;;;11.20;;
56736;SDS011;42618;51.226;4.910;2023-04-06T03:39:43;26.38;;;11.57;;
56736;SDS011;42618;51.226;4.910;2023-04-06T03:42:16;20.77;;;10.32;;
56736;SDS011;42618;51.226;4.910;2023-04-06T03:44:51;26.02;;;11.32;;
56736;SDS011;42618;51.226;4.910;2023-04-06T03:47:18;22.35;;;10.82;;
56736;SDS011;42618;51.226;4.910;2023-04-06T03:49:45;23.75;;;11.50;;
56736;SDS011;42618;51.226;4.910;2023-04-06T03:52:14;23.67;;;11.38;;
56736;SDS011;42618;51.226;4.910;2023-04-06T03:54:41;24.23;;;11.20;;
56736;SDS011;42618;51.226;4.910;2023-04-06T03:57:09;21.15;;;10.00;;
56736;SDS011;42618;51.226;4.910;2023-04-06T03:59:36;28.48;;;10.10;;
56736;SDS011;42618;51.226;4.910;2023-04-06T04:02:03;26.85;;;11.05;;
56736;SDS011;42618;51.226;4.910;2023-04-06T04:04:29;20.70;;;9.93;;
56736;SDS011;42618;51.226;4.910;2023-04-06T04:06:57;26.43;;;11.83;;
56736;SDS011;42618;51.226;4.910;2023-04-06T04:09:23;30.20;;;11.65;;
56736;SDS011;42618;51.226;4.910;2023-04-06T04:11:52;24.95;;;11.43;;
56736;SDS011;42618;51.226;4.910;2023-04-06T04:14:20;23.40;;;11.30;;
56736;SDS011;42618;51.226;4.910;2023-04-06T04:16:46;21.70;;;11.15;;
56736;SDS011;42618;51.226;4.910;2023-04-06T04:19:13;18.90;;;7.78;;
56736;SDS011;42618;51.226;4.910;2023-04-06T04:21:43;22.67;;;9.93;;
56736;SDS011;42618;51.226;4.910;2023-04-06T04:24:15;21.92;;;9.27;;
56736;SDS011;42618;51.226;4.910;2023-04-06T04:26:41;24.65;;;10.15;;
56736;SDS011;42618;51.226;4.910;2023-04-06T04:29:08;21.08;;;10.82;;
56736;SDS011;42618;51.226;4.910;2023-04-06T04:31:37;20.70;;;9.85;;
56736;SDS011;42618;51.226;4.910;2023-04-06T04:34:10;23.65;;;10.65;;
56736;SDS011;42618;51.226;4.910;2023-04-06T04:36:37;21.48;;;10.88;;
56736;SDS011;42618;51.226;4.910;2023-04-06T04:39:08;19.88;;;9.05;;
56736;SDS011;42618;51.226;4.910;2023-04-06T04:41:40;26.40;;;9.98;;
56736;SDS011;42618;51.226;4.910;2023-04-06T04:44:09;20.45;;;9.10;;
56736;SDS011;42618;51.226;4.910;2023-04-06T04:46:35;21.73;;;9.98;;
56736;SDS011;42618;51.226;4.910;2023-04-06T04:49:03;26.58;;;10.88;;
56736;SDS011;42618;51.226;4.910;2023-04-06T04:51:31;22.65;;;9.70;;
56736;SDS011;42618;51.226;4.910;2023-04-06T04:54:15;21.00;;;10.05;;
56736;SDS011;42618;51.226;4.910;2023-04-06T04:56:42;21.85;;;10.18;;
56736;SDS011;42618;51.226;4.910;2023-04-06T04:59:22;21.33;;;8.93;;
56736;SDS011;42618;51.226;4.910;2023-04-06T05:01:56;19.27;;;9.90;;
56736;SDS011;42618;51.226;4.910;2023-04-06T05:04:31;20.10;;;9.70;;
56736;SDS011;42618;51.226;4.910;2023-04-06T05:07:10;20.80;;;9.65;;
56736;SDS011;42618;51.226;4.910;2023-04-06T05:09:39;24.95;;;10.98;;
56736;SDS011;42618;51.226;4.910;2023-04-06T05:12:06;22.98;;;10.73;;
56736;SDS011;42618;51.226;4.910;2023-04-06T05:14:41;23.48;;;10.20;;
56736;SDS011;42618;51.226;4.910;2023-04-06T05:17:13;20.77;;;10.35;;
56736;SDS011;42618;51.226;4.910;2023-04-06T05:19:40;19.98;;;9.88;;
56736;SDS011;42618;51.226;4.910;2023-04-06T05:22:08;24.00;;;10.82;;
56736;SDS011;42618;51.226;4.910;2023-04-06T05:24:37;21.23;;;10.40;;
56736;SDS011;42618;51.226;4.910;2023-04-06T05:27:07;27.23;;;10.07;;
56736;SDS011;42618;51.226;4.910;2023-04-06T05:29:34;21.42;;;9.80;;
56736;SDS011;42618;51.226;4.910;2023-04-06T05:32:01;26.50;;;11.63;;
56736;SDS011;42618;51.226;4.910;2023-04-06T05:34:28;29.35;;;11.35;;
56736;SDS011;42618;51.226;4.910;2023-04-06T05:36:56;31.35;;;13.45;;
56736;SDS011;42618;51.226;4.910;2023-04-06T05:39:24;28.25;;;13.95;;
56736;SDS011;42618;51.226;4.910;2023-04-06T05:41:52;29.42;;;13.93;;
56736;SDS011;42618;51.226;4.910;2023-04-06T05:44:30;23.42;;;10.75;;
56736;SDS011;42618;51.226;4.910;2023-04-06T05:47:05;22.65;;;11.32;;
56736;SDS011;42618;51.226;4.910;2023-04-06T05:49:33;31.83;;;11.02;;
56736;SDS011;42618;51.226;4.910;2023-04-06T05:54:28;17.67;;;9.80;;
56736;SDS011;42618;51.226;4.910;2023-04-06T05:57:01;20.25;;;9.98;;
56736;SDS011;42618;51.226;4.910;2023-04-06T05:59:30;20.08;;;11.23;;
56736;SDS011;42618;51.226;4.910;2023-04-06T06:01:57;26.73;;;11.98;;
56736;SDS011;42618;51.226;4.910;2023-04-06T06:04:24;25.67;;;10.77;;
56736;SDS011;42618;51.226;4.910;2023-04-06T06:06:53;20.92;;;10.13;;
56736;SDS011;42618;51.226;4.910;2023-04-06T06:09:26;22.85;;;10.25;;
56736;SDS011;42618;51.226;4.910;2023-04-06T06:12:13;25.55;;;11.20;;
56736;SDS011;42618;51.226;4.910;2023-04-06T06:14:40;25.20;;;11.97;;
56736;SDS011;42618;51.226;4.910;2023-04-06T06:17:07;22.88;;;10.88;;
56736;SDS011;42618;51.226;4.910;2023-04-06T06:19:35;22.48;;;10.05;;
56736;SDS011;42618;51.226;4.910;2023-04-06T06:22:05;24.92;;;10.30;;
56736;SDS011;42618;51.226;4.910;2023-04-06T06:24:36;25.17;;;11.18;;
56736;SDS011;42618;51.226;4.910;2023-04-06T06:27:03;24.30;;;11.38;;
56736;SDS011;42618;51.226;4.910;2023-04-06T06:29:32;23.30;;;10.93;;
56736;SDS011;42618;51.226;4.910;2023-04-06T06:31:59;25.80;;;11.48;;
56736;SDS011;42618;51.226;4.910;2023-04-06T06:34:26;23.17;;;10.57;;
56736;SDS011;42618;51.226;4.910;2023-04-06T06:36:56;24.48;;;11.90;;
56736;SDS011;42618;51.226;4.910;2023-04-06T06:39:23;22.25;;;10.52;;
56736;SDS011;42618;51.226;4.910;2023-04-06T06:41:50;25.75;;;10.50;;
56736;SDS011;42618;51.226;4.910;2023-04-06T06:44:21;22.30;;;10.82;;
56736;SDS011;42618;51.226;4.910;2023-04-06T06:46:49;24.58;;;12.60;;
56736;SDS011;42618;51.226;4.910;2023-04-06T06:49:17;26.35;;;12.90;;
56736;SDS011;42618;51.226;4.910;2023-04-06T06:51:44;23.17;;;10.63;;
56736;SDS011;42618;51.226;4.910;2023-04-06T06:54:12;22.17;;;10.60;;
56736;SDS011;42618;51.226;4.910;2023-04-06T06:56:39;20.25;;;9.95;;
56736;SDS011;42618;51.226;4.910;2023-04-06T06:59:06;20.65;;;10.40;;
56736;SDS011;42618;51.226;4.910;2023-04-06T07:01:33;23.67;;;10.70;;
56736;SDS011;42618;51.226;4.910;2023-04-06T07:04:01;20.67;;;10.07;;
56736;SDS011;42618;51.226;4.910;2023-04-06T07:06:28;21.33;;;10.63;;
56736;SDS011;42618;51.226;4.910;2023-04-06T07:08:55;17.55;;;9.48;;
56736;SDS011;42618;51.226;4.910;2023-04-06T07:11:22;20.15;;;10.02;;
56736;SDS011;42618;51.226;4.910;2023-04-06T07:13:49;23.88;;;10.25;;
56736;SDS011;42618;51.226;4.910;2023-04-06T07:16:16;19.63;;;10.17;;
56736;SDS011;42618;51.226;4.910;2023-04-06T07:18:43;19.92;;;9.75;;
56736;SDS011;42618;51.226;4.910;2023-04-06T07:21:10;21.48;;;10.10;;
56736;SDS011;42618;51.226;4.910;2023-04-06T07:23:37;21.20;;;10.33;;
56736;SDS011;42618;51.226;4.910;2023-04-06T07:26:05;20.10;;;10.27;;
56736;SDS011;42618;51.226;4.910;2023-04-06T07:28:32;16.65;;;8.98;;
56736;SDS011;42618;51.226;4.910;2023-04-06T07:31:00;20.60;;;10.15;;
56736;SDS011;42618;51.226;4.910;2023-04-06T07:33:28;23.88;;;10.48;;
56736;SDS011;42618;51.226;4.910;2023-04-06T07:35:56;21.80;;;10.88;;
56736;SDS011;42618;51.226;4.910;2023-04-06T07:38:25;22.55;;;10.70;;
56736;SDS011;42618;51.226;4.910;2023-04-06T07:40:52;18.25;;;9.10;;
56736;SDS011;42618;51.226;4.910;2023-04-06T07:43:18;19.55;;;10.13;;
56736;SDS011;42618;51.226;4.910;2023-04-06T07:45:45;22.55;;;10.02;;
56736;SDS011;42618;51.226;4.910;2023-04-06T07:48:15;28.00;;;10.25;;
56736;SDS011;42618;51.226;4.910;2023-04-06T07:53:09;23.67;;;10.27;;
56736;SDS011;42618;51.226;4.910;2023-04-06T07:55:37;19.27;;;9.80;;
56736;SDS011;42618;51.226;4.910;2023-04-06T07:58:04;19.52;;;10.13;;
56736;SDS011;42618;51.226;4.910;2023-04-06T08:00:31;23.40;;;10.27;;
56736;SDS011;42618;51.226;4.910;2023-04-06T08:02:58;20.90;;;10.55;;
56736;SDS011;42618;51.226;4.910;2023-04-06T08:05:25;20.92;;;10.70;;
56736;SDS011;42618;51.226;4.910;2023-04-06T08:07:52;18.83;;;9.00;;
56736;SDS011;42618;51.226;4.910;2023-04-06T08:10:19;19.92;;;8.55;;
56736;SDS011;42618;51.226;4.910;2023-04-06T08:12:45;16.98;;;8.45;;
56736;SDS011;42618;51.226;4.910;2023-04-06T08:15:12;19.60;;;9.70;;
56736;SDS011;42618;51.226;4.910;2023-04-06T08:17:39;20.30;;;9.85;;
56736;SDS011;42618;51.226;4.910;2023-04-06T08:20:06;19.42;;;9.13;;
56736;SDS011;42618;51.226;4.910;2023-04-06T08:22:33;15.77;;;7.97;;
56736;SDS011;42618;51.226;4.910;2023-04-06T08:24:59;21.42;;;10.15;;
56736;SDS011;42618;51.226;4.910;2023-04-06T08:27:26;20.05;;;9.50;;
56736;SDS011;42618;51.226;4.910;2023-04-06T08:29:53;10.75;;;5.60;;
56736;SDS011;42618;51.226;4.910;2023-04-06T08:32:20;20.70;;;9.73;;
56736;SDS011;42618;51.226;4.910;2023-04-06T08:34:46;18.92;;;10.13;;
56736;SDS011;42618;51.226;4.910;2023-04-06T08:37:13;17.48;;;9.43;;
56736;SDS011;42618;51.226;4.910;2023-04-06T08:39:40;16.40;;;8.68;;
56736;SDS011;42618;51.226;4.910;2023-04-06T08:42:10;21.60;;;10.60;;
56736;SDS011;42618;51.226;4.910;2023-04-06T08:44:42;18.63;;;8.88;;
56736;SDS011;42618;51.226;4.910;2023-04-06T08:47:10;22.80;;;10.32;;
56736;SDS011;42618;51.226;4.910;2023-04-06T08:49:37;24.27;;;10.90;;
56736;SDS011;42618;51.226;4.910;2023-04-06T08:52:07;22.58;;;10.45;;
56736;SDS011;42618;51.226;4.910;2023-04-06T08:54:34;23.87;;;11.53;;
56736;SDS011;42618;51.226;4.910;2023-04-06T08:57:01;21.02;;;9.57;;
56736;SDS011;42618;51.226;4.910;2023-04-06T08:59:29;19.23;;;9.02;;
56736;SDS011;42618;51.226;4.910;2023-04-06T09:01:57;17.83;;;9.63;;
56736;SDS011;42618;51.226;4.910;2023-04-06T09:04:26;19.88;;;9.00;;
56736;SDS011;42618;51.226;4.910;2023-04-06T09:06:53;21.50;;;9.40;;
56736;SDS011;42618;51.226;4.910;2023-04-06T09:09:20;21.00;;;8.45;;
56736;SDS011;42618;51.226;4.910;2023-04-06T09:11:50;18.45;;;8.77;;
56736;SDS011;42618;51.226;4.910;2023-04-06T09:14:36;19.92;;;8.18;;
56736;SDS011;42618;51.226;4.910;2023-04-06T09:17:05;17.73;;;7.90;;
56736;SDS011;42618;51.226;4.910;2023-04-06T10:16:40;14.77;;;7.70;;
56736;SDS011;42618;51.226;4.910;2023-04-06T10:19:16;11.75;;;6.68;;
56736;SDS011;42618;51.226;4.910;2023-04-06T10:21:48;12.27;;;6.88;;
56736;SDS011;42618;51.226;4.910;2023-04-06T10:24:19;9.50;;;5.22;;
56736;SDS011;42618;51.226;4.910;2023-04-06T10:27:02;14.63;;;7.10;;
56736;SDS011;42618;51.226;4.910;2023-04-06T10:29:50;14.00;;;7.20;;
56736;SDS011;42618;51.226;4.910;2023-04-06T10:34:44;11.70;;;5.53;;
56736;SDS011;42618;51.226;4.910;2023-04-06T10:37:12;10.48;;;4.78;;
56736;SDS011;42618;51.226;4.910;2023-04-06T10:39:46;9.25;;;5.30;;
56736;SDS011;42618;51.226;4.910;2023-04-06T10:42:24;14.32;;;6.63;;
56736;SDS011;42618;51.226;4.910;2023-04-06T10:44:52;12.38;;;6.72;;
56736;SDS011;42618;51.226;4.910;2023-04-06T10:47:19;14.75;;;6.28;;
56736;SDS011;42618;51.226;4.910;2023-04-06T10:49:45;15.40;;;7.32;;
56736;SDS011;42618;51.226;4.910;2023-04-06T10:52:12;13.63;;;7.90;;
56736;SDS011;42618;51.226;4.910;2023-04-06T10:54:42;13.38;;;7.38;;
56736;SDS011;42618;51.226;4.910;2023-04-06T10:57:10;16.08;;;8.00;;
56736;SDS011;42618;51.226;4.910;2023-04-06T10:59:41;13.52;;;7.43;;
56736;SDS011;42618;51.226;4.910;2023-04-06T11:02:18;18.63;;;8.05;;
56736;SDS011;42618;51.226;4.910;2023-04-06T11:04:53;14.43;;;6.78;;
56736;SDS011;42618;51.226;4.910;2023-04-06T11:07:27;11.10;;;6.57;;
56736;SDS011;42618;51.226;4.910;2023-04-06T11:09:56;14.65;;;7.57;;
56736;SDS011;42618;51.226;4.910;2023-04-06T11:12:42;9.93;;;4.72;;
56736;SDS011;42618;51.226;4.910;2023-04-06T11:15:09;9.93;;;5.20;;
56736;SDS011;42618;51.226;4.910;2023-04-06T11:17:36;14.38;;;7.05;;
56736;SDS011;42618;51.226;4.910;2023-04-06T11:20:04;12.13;;;6.38;;
56736;SDS011;42618;51.226;4.910;2023-04-06T11:22:36;13.48;;;6.97;;
56736;SDS011;42618;51.226;4.910;2023-04-06T11:25:05;13.15;;;7.57;;
56736;SDS011;42618;51.226;4.910;2023-04-06T11:27:33;12.05;;;7.05;;
56736;SDS011;42618;51.226;4.910;2023-04-06T11:32:28;14.23;;;6.53;;
56736;SDS011;42618;51.226;4.910;2023-04-06T11:34:57;12.07;;;6.13;;
56736;SDS011;42618;51.226;4.910;2023-04-06T11:37:26;8.68;;;5.00;;
56736;SDS011;42618;51.226;4.910;2023-04-06T11:39:54;11.77;;;6.43;;
56736;SDS011;42618;51.226;4.910;2023-04-06T11:42:25;14.13;;;7.43;;
56736;SDS011;42618;51.226;4.910;2023-04-06T11:44:53;13.93;;;6.68;;
56736;SDS011;42618;51.226;4.910;2023-04-06T11:47:27;19.50;;;8.93;;
56736;SDS011;42618;51.226;4.910;2023-04-06T11:49:54;14.35;;;7.32;;
56736;SDS011;42618;51.226;4.910;2023-04-06T11:52:22;11.38;;;6.03;;
56736;SDS011;42618;51.226;4.910;2023-04-06T11:54:51;11.85;;;6.68;;
56736;SDS011;42618;51.226;4.910;2023-04-06T11:57:19;9.00;;;5.22;;
56736;SDS011;42618;51.226;4.910;2023-04-06T11:59:47;12.25;;;6.18;;
56736;SDS011;42618;51.226;4.910;2023-04-06T12:02:14;13.70;;;7.25;;
56736;SDS011;42618;51.226;4.910;2023-04-06T12:04:41;13.13;;;7.32;;
56736;SDS011;42618;51.226;4.910;2023-04-06T12:07:08;9.75;;;5.43;;
56736;SDS011;42618;51.226;4.910;2023-04-06T12:09:35;12.23;;;6.35;;
56736;SDS011;42618;51.226;4.910;2023-04-06T12:14:29;13.88;;;7.97;;
56736;SDS011;42618;51.226;4.910;2023-04-06T12:16:57;11.30;;;6.05;;
56736;SDS011;42618;51.226;4.910;2023-04-06T12:19:24;13.77;;;6.88;;
56736;SDS011;42618;51.226;4.910;2023-04-06T12:21:52;12.90;;;7.28;;
56736;SDS011;42618;51.226;4.910;2023-04-06T12:24:21;11.52;;;6.57;;
56736;SDS011;42618;51.226;4.910;2023-04-06T12:26:47;12.35;;;5.97;;
56736;SDS011;42618;51.226;4.910;2023-04-06T12:29:19;7.97;;;5.53;;
56736;SDS011;42618;51.226;4.910;2023-04-06T12:31:46;13.50;;;7.37;;
56736;SDS011;42618;51.226;4.910;2023-04-06T12:34:13;14.02;;;6.30;;
56736;SDS011;42618;51.226;4.910;2023-04-06T12:36:40;16.02;;;6.88;;
56736;SDS011;42618;51.226;4.910;2023-04-06T12:39:06;9.52;;;5.05;;
56736;SDS011;42618;51.226;4.910;2023-04-06T12:41:33;12.52;;;6.68;;
56736;SDS011;42618;51.226;4.910;2023-04-06T12:44:00;10.48;;;5.75;;
56736;SDS011;42618;51.226;4.910;2023-04-06T12:46:28;14.82;;;7.25;;
56736;SDS011;42618;51.226;4.910;2023-04-06T12:48:58;17.27;;;9.20;;
56736;SDS011;42618;51.226;4.910;2023-04-06T12:51:28;8.65;;;5.22;;
56736;SDS011;42618;51.226;4.910;2023-04-06T12:53:55;17.55;;;8.60;;
56736;SDS011;42618;51.226;4.910;2023-04-06T12:56:22;15.27;;;7.80;;
56736;SDS011;42618;51.226;4.910;2023-04-06T12:58:52;19.13;;;8.85;;
56736;SDS011;42618;51.226;4.910;2023-04-06T13:01:19;14.32;;;7.43;;
56736;SDS011;42618;51.226;4.910;2023-04-06T13:03:46;23.30;;;8.30;;
56736;SDS011;42618;51.226;4.910;2023-04-06T13:06:13;9.00;;;5.45;;
56736;SDS011;42618;51.226;4.910;2023-04-06T13:08:41;13.00;;;7.65;;
56736;SDS011;42618;51.226;4.910;2023-04-06T13:11:09;15.15;;;7.97;;
56736;SDS011;42618;51.226;4.910;2023-04-06T13:13:36;13.00;;;6.60;;
56736;SDS011;42618;51.226;4.910;2023-04-06T13:16:04;8.27;;;4.82;;
56736;SDS011;42618;51.226;4.910;2023-04-06T13:18:33;8.45;;;5.07;;
56736;SDS011;42618;51.226;4.910;2023-04-06T13:21:01;14.82;;;7.80;;
56736;SDS011;42618;51.226;4.910;2023-04-06T13:23:28;14.27;;;7.80;;
56736;SDS011;42618;51.226;4.910;2023-04-06T13:26:02;13.57;;;6.88;;
56736;SDS011;42618;51.226;4.910;2023-04-06T13:28:31;15.15;;;7.82;;
56736;SDS011;42618;51.226;4.910;2023-04-06T13:33:26;11.55;;;5.50;;
56736;SDS011;42618;51.226;4.910;2023-04-06T13:38:21;9.68;;;5.70;;
56736;SDS011;42618;51.226;4.910;2023-04-06T13:40:50;18.60;;;8.30;;
56736;SDS011;42618;51.226;4.910;2023-04-06T13:43:18;14.70;;;7.60;;
56736;SDS011;42618;51.226;4.910;2023-04-06T13:45:50;14.68;;;7.95;;
56736;SDS011;42618;51.226;4.910;2023-04-06T13:48:18;14.73;;;8.38;;
56736;SDS011;42618;51.226;4.910;2023-04-06T13:50:45;11.23;;;6.22;;
56736;SDS011;42618;51.226;4.910;2023-04-06T13:53:12;14.55;;;7.97;;
56736;SDS011;42618;51.226;4.910;2023-04-06T13:55:39;13.60;;;7.25;;
56736;SDS011;42618;51.226;4.910;2023-04-06T13:58:07;16.42;;;6.95;;
56736;SDS011;42618;51.226;4.910;2023-04-06T14:00:34;13.32;;;6.88;;
56736;SDS011;42618;51.226;4.910;2023-04-06T14:03:01;15.95;;;9.13;;
56736;SDS011;42618;51.226;4.910;2023-04-06T14:05:31;14.25;;;8.25;;
56736;SDS011;42618;51.226;4.910;2023-04-06T14:07:59;12.30;;;7.45;;
56736;SDS011;42618;51.226;4.910;2023-04-06T14:10:26;9.90;;;6.10;;
56736;SDS011;42618;51.226;4.910;2023-04-06T14:12:54;12.98;;;7.45;;
56736;SDS011;42618;51.226;4.910;2023-04-06T14:17:50;13.30;;;6.03;;
56736;SDS011;42618;51.226;4.910;2023-04-06T14:20:18;14.45;;;7.75;;
56736;SDS011;42618;51.226;4.910;2023-04-06T14:22:45;13.32;;;7.78;;
56736;SDS011;42618;51.226;4.910;2023-04-06T14:25:13;16.98;;;9.55;;
56736;SDS011;42618;51.226;4.910;2023-04-06T14:27:39;16.45;;;9.32;;
56736;SDS011;42618;51.226;4.910;2023-04-06T14:30:06;11.93;;;7.03;;
56736;SDS011;42618;51.226;4.910;2023-04-06T14:32:34;19.40;;;9.68;;
56736;SDS011;42618;51.226;4.910;2023-04-06T14:35:06;15.85;;;9.02;;
56736;SDS011;42618;51.226;4.910;2023-04-06T14:37:33;14.93;;;8.18;;
56736;SDS011;42618;51.226;4.910;2023-04-06T14:40:00;14.80;;;9.33;;
56736;SDS011;42618;51.226;4.910;2023-04-06T14:42:27;12.13;;;7.53;;
56736;SDS011;42618;51.226;4.910;2023-04-06T14:44:54;19.00;;;9.52;;
56736;SDS011;42618;51.226;4.910;2023-04-06T14:47:21;17.35;;;9.95;;
56736;SDS011;42618;51.226;4.910;2023-04-06T14:49:51;11.40;;;6.75;;
56736;SDS011;42618;51.226;4.910;2023-04-06T14:52:18;13.15;;;7.43;;
56736;SDS011;42618;51.226;4.910;2023-04-06T14:54:45;14.48;;;8.25;;
56736;SDS011;42618;51.226;4.910;2023-04-06T14:57:12;18.13;;;9.93;;
56736;SDS011;42618;51.226;4.910;2023-04-06T14:59:39;16.60;;;8.32;;
56736;SDS011;42618;51.226;4.910;2023-04-06T15:02:06;21.25;;;9.32;;
56736;SDS011;42618;51.226;4.910;2023-04-06T15:04:34;16.45;;;9.68;;
56736;SDS011;42618;51.226;4.910;2023-04-06T15:07:01;18.05;;;10.20;;
56736;SDS011;42618;51.226;4.910;2023-04-06T15:09:28;18.65;;;10.82;;
56736;SDS011;42618;51.226;4.910;2023-04-06T15:11:55;14.60;;;8.10;;
56736;SDS011;42618;51.226;4.910;2023-04-06T15:14:22;18.05;;;10.73;;
56736;SDS011;42618;51.226;4.910;2023-04-06T15:16:49;22.90;;;11.98;;
56736;SDS011;42618;51.226;4.910;2023-04-06T15:19:16;19.30;;;10.63;;
56736;SDS011;42618;51.226;4.910;2023-04-06T15:21:42;17.75;;;9.02;;
56736;SDS011;42618;51.226;4.910;2023-04-06T15:24:09;19.55;;;10.80;;
56736;SDS011;42618;51.226;4.910;2023-04-06T15:26:36;28.90;;;15.68;;
56736;SDS011;42618;51.226;4.910;2023-04-06T15:29:03;18.15;;;10.73;;
56736;SDS011;42618;51.226;4.910;2023-04-06T15:31:30;21.33;;;11.60;;
56736;SDS011;42618;51.226;4.910;2023-04-06T15:34:03;24.75;;;14.57;;
56736;SDS011;42618;51.226;4.910;2023-04-06T15:36:31;25.20;;;13.23;;
56736;SDS011;42618;51.226;4.910;2023-04-06T15:38:59;23.75;;;9.82;;
56736;SDS011;42618;51.226;4.910;2023-04-06T15:41:26;21.63;;;12.63;;
56736;SDS011;42618;51.226;4.910;2023-04-06T15:43:54;26.38;;;13.80;;
56736;SDS011;42618;51.226;4.910;2023-04-06T15:46:22;24.45;;;13.48;;
56736;SDS011;42618;51.226;4.910;2023-04-06T15:48:49;31.40;;;18.15;;
56736;SDS011;42618;51.226;4.910;2023-04-06T15:51:16;19.60;;;11.65;;
56736;SDS011;42618;51.226;4.910;2023-04-06T15:53:43;22.33;;;12.35;;
56736;SDS011;42618;51.226;4.910;2023-04-06T15:56:10;23.02;;;14.02;;
56736;SDS011;42618;51.226;4.910;2023-04-06T15:58:40;24.23;;;11.95;;
56736;SDS011;42618;51.226;4.910;2023-04-06T16:01:17;23.23;;;13.35;;
56736;SDS011;42618;51.226;4.910;2023-04-06T16:03:44;22.20;;;11.93;;